createdAt,value
2019-03-28T00:01:25.371Z,49.85
2019-03-28T00:03:53.336Z,48.10
2019-03-28T00:06:21.302Z,45.10
2019-03-28T00:08:49.289Z,50.20
2019-03-28T00:11:17.247Z,58.17
2019-03-28T00:13:45.234Z,46.15
2019-03-28T00:16:13.208Z,40.58
2019-03-28T00:18:41.188Z,43.55
2019-03-28T00:21:09.188Z,41.95
2019-03-28T00:23:38.808Z,52.33
2019-03-28T00:26:06.783Z,47.95
2019-03-28T00:28:34.765Z,42.93
2019-03-28T00:31:02.738Z,42.17
2019-03-28T00:33:30.712Z,36.68
2019-03-28T00:35:58.683Z,39.60
2019-03-28T00:38:26.664Z,39.98
2019-03-28T00:40:55.159Z,33.20
2019-03-28T00:43:23.288Z,47.93
2019-03-28T00:45:51.263Z,36.42
2019-03-28T00:48:19.250Z,35.60
2019-03-28T00:50:47.231Z,39.10
2019-03-28T00:53:15.186Z,36.85
2019-03-28T00:55:43.169Z,31.95
2019-03-28T00:58:11.126Z,33.58
2019-03-28T01:00:39.109Z,45.23
2019-03-28T01:03:07.066Z,42.70
2019-03-28T01:05:35.039Z,43.45
2019-03-28T01:08:03.019Z,39.50
2019-03-28T01:10:30.987Z,37.63
2019-03-28T01:12:58.964Z,46.85
2019-03-28T01:15:26.932Z,41.68
2019-03-28T01:17:55.183Z,45.48
2019-03-28T01:20:23.251Z,43.47
2019-03-28T01:22:51.233Z,60.85
2019-03-28T01:25:19.199Z,59.38
2019-03-28T01:27:47.177Z,54.75
2019-03-28T01:30:16.787Z,59.25
2019-03-28T01:32:44.768Z,57.48
2019-03-28T01:35:12.743Z,50.85
2019-03-28T01:37:40.713Z,52.55
2019-03-28T01:40:08.679Z,42.10
2019-03-28T01:42:36.671Z,47.17
2019-03-28T01:45:05.714Z,47.73
2019-03-28T01:47:33.684Z,50.35
2019-03-28T01:50:01.661Z,42.67
2019-03-28T01:52:29.620Z,39.15
2019-03-28T01:54:57.605Z,33.00
2019-03-28T01:57:25.572Z,32.38
2019-03-28T01:59:53.547Z,33.85
2019-03-28T02:02:21.535Z,29.87
2019-03-28T02:04:49.495Z,26.27
2019-03-28T02:07:17.497Z,40.43
2019-03-28T02:09:45.473Z,48.50
2019-03-28T02:12:13.451Z,41.80
2019-03-28T02:14:41.428Z,46.83
2019-03-28T02:17:09.438Z,52.67
2019-03-28T02:19:37.403Z,43.33
2019-03-28T02:22:05.423Z,45.92
2019-03-28T02:24:33.405Z,55.05
2019-03-28T02:27:01.393Z,46.18
2019-03-28T02:29:29.347Z,52.10
2019-03-28T02:31:57.326Z,42.43
2019-03-28T02:34:25.300Z,51.83
2019-03-28T02:36:53.264Z,53.23
2019-03-28T02:39:21.240Z,54.03
2019-03-28T02:41:49.212Z,51.30
2019-03-28T02:44:17.231Z,40.30
2019-03-28T02:46:45.199Z,39.18
2019-03-28T02:49:13.180Z,38.33
2019-03-28T02:51:41.150Z,42.85
2019-03-28T02:54:09.124Z,43.60
2019-03-28T02:56:37.100Z,49.33
2019-03-28T02:59:05.087Z,41.98
2019-03-28T03:01:33.041Z,44.73
2019-03-28T03:04:01.008Z,44.10
2019-03-28T03:06:29.008Z,46.58
2019-03-28T03:08:56.973Z,44.05
2019-03-28T03:11:24.947Z,35.52
2019-03-28T03:13:52.911Z,44.75
2019-03-28T03:16:20.905Z,29.12
2019-03-28T03:18:48.883Z,28.50
2019-03-28T03:21:16.850Z,30.80
2019-03-28T03:23:44.833Z,22.98
2019-03-28T03:26:12.820Z,28.35
2019-03-28T03:28:40.797Z,29.32
2019-03-28T03:31:08.774Z,33.18
2019-03-28T03:33:37.706Z,26.55
2019-03-28T03:36:05.963Z,31.75
2019-03-28T03:38:33.965Z,25.88
2019-03-28T03:41:01.932Z,23.40
2019-03-28T03:43:29.917Z,26.00
2019-03-28T03:45:57.893Z,27.02
2019-03-28T03:48:25.868Z,28.62
2019-03-28T03:50:53.849Z,27.90
2019-03-28T03:53:21.824Z,30.02
2019-03-28T03:55:49.797Z,30.52
2019-03-28T03:58:18.617Z,31.42
2019-03-28T04:00:47.156Z,29.40
2019-03-28T04:03:15.112Z,30.97
2019-03-28T04:05:43.081Z,29.92
2019-03-28T04:08:11.544Z,29.72
2019-03-28T04:10:39.508Z,30.43
2019-03-28T04:13:07.497Z,28.42
2019-03-28T04:15:35.484Z,29.30
2019-03-28T04:18:03.452Z,27.93
2019-03-28T04:20:31.432Z,31.70
2019-03-28T04:22:59.439Z,31.55
2019-03-28T04:25:27.472Z,29.00
2019-03-28T04:27:55.443Z,26.12
2019-03-28T04:30:23.420Z,31.82
2019-03-28T04:32:51.409Z,28.85
2019-03-28T04:35:19.389Z,26.48
2019-03-28T04:37:47.428Z,27.30
2019-03-28T04:40:15.413Z,33.85
2019-03-28T04:42:45.862Z,33.02
2019-03-28T04:45:13.076Z,27.13
2019-03-28T04:47:41.047Z,27.55
2019-03-28T04:50:09.024Z,28.17
2019-03-28T04:52:37.067Z,31.77
2019-03-28T04:55:05.703Z,27.98
2019-03-28T04:57:33.672Z,32.85
2019-03-28T05:00:01.655Z,33.45
2019-03-28T05:02:29.620Z,34.98
2019-03-28T05:05:19.349Z,34.58
2019-03-28T05:07:47.317Z,29.72
2019-03-28T05:10:15.441Z,36.08
2019-03-28T05:12:43.640Z,33.42
2019-03-28T05:15:11.608Z,38.80
2019-03-28T05:17:40.435Z,46.73
2019-03-28T05:20:08.739Z,48.23
2019-03-28T05:22:36.720Z,45.67
2019-03-28T05:25:05.098Z,54.73
2019-03-28T05:27:33.520Z,55.00
2019-03-28T05:30:01.728Z,56.30
2019-03-28T05:32:29.684Z,61.98
2019-03-28T05:34:57.655Z,70.05
2019-03-28T05:37:25.620Z,64.53
2019-03-28T05:39:53.597Z,65.75
2019-03-28T05:42:21.649Z,58.02
2019-03-28T05:44:49.675Z,40.85
2019-03-28T05:47:17.662Z,43.08
2019-03-28T05:49:45.634Z,45.65
2019-03-28T05:52:13.608Z,42.43
2019-03-28T05:54:41.575Z,47.08
2019-03-28T05:57:09.575Z,45.88
2019-03-28T05:59:37.548Z,44.33
2019-03-28T06:02:05.511Z,47.62
2019-03-28T06:04:34.350Z,48.10
2019-03-28T06:07:02.570Z,46.98
2019-03-28T06:09:30.693Z,53.48
2019-03-28T06:11:58.665Z,49.98
2019-03-28T06:14:26.649Z,45.23
2019-03-28T06:16:54.694Z,44.33
2019-03-28T06:19:22.655Z,52.85
2019-03-28T06:21:50.633Z,48.15
2019-03-28T06:24:18.621Z,50.30
2019-03-28T06:26:46.595Z,56.20
2019-03-28T06:29:23.747Z,47.30
2019-03-28T06:31:54.531Z,52.57
2019-03-28T06:34:13.996Z,45.88
2019-03-28T06:36:41.977Z,52.15
2019-03-28T06:39:10.129Z,50.92
2019-03-28T06:41:38.107Z,47.80
2019-03-28T06:44:06.065Z,52.15
2019-03-28T06:46:34.060Z,46.37
2019-03-28T06:49:02.109Z,52.60
2019-03-28T06:51:30.095Z,49.53
2019-03-28T06:53:58.071Z,42.58
2019-03-28T06:56:26.043Z,40.85
2019-03-28T06:58:54.039Z,46.70
2019-03-28T07:01:22.015Z,49.33
2019-03-28T07:03:49.980Z,45.67
2019-03-28T07:06:17.963Z,45.67
2019-03-28T07:08:45.932Z,50.08
2019-03-28T07:11:13.911Z,43.78
2019-03-28T07:13:41.887Z,53.28
2019-03-28T07:16:09.859Z,44.30
2019-03-28T07:18:37.853Z,50.70
2019-03-28T07:21:05.823Z,50.15
2019-03-28T07:23:33.816Z,46.98
2019-03-28T07:26:01.780Z,45.48
2019-03-28T07:28:29.753Z,52.17
2019-03-28T07:30:57.763Z,49.08
2019-03-28T07:33:25.744Z,51.90
2019-03-28T07:35:53.763Z,45.85
2019-03-28T07:38:21.736Z,51.90
2019-03-28T07:40:49.716Z,48.85
2019-03-28T07:43:17.688Z,50.45
2019-03-28T07:45:45.693Z,44.90
2019-03-28T07:48:13.640Z,45.30
2019-03-28T07:50:42.699Z,44.85
2019-03-28T07:53:10.820Z,47.75
2019-03-28T07:55:38.773Z,46.88
2019-03-28T07:58:07.675Z,42.25
2019-03-28T08:00:35.832Z,43.63
2019-03-28T08:03:03.835Z,41.77
2019-03-28T08:05:31.819Z,48.15
2019-03-28T08:07:59.799Z,45.30
2019-03-28T08:10:27.768Z,45.58
2019-03-28T08:12:55.835Z,40.12
2019-03-28T08:15:23.811Z,37.73
2019-03-28T08:17:51.775Z,37.67
2019-03-28T08:20:19.755Z,37.50
2019-03-28T08:22:47.720Z,37.90
2019-03-28T08:25:15.713Z,35.10
2019-03-28T08:27:43.697Z,38.60
2019-03-28T08:30:18.268Z,39.63
2019-03-28T08:32:41.360Z,35.00
2019-03-28T08:35:10.410Z,30.65
2019-03-28T08:37:38.599Z,34.23
2019-03-28T08:40:07.234Z,32.35
2019-03-28T08:42:35.206Z,31.45
2019-03-28T08:45:04.459Z,29.95
2019-03-28T08:47:32.439Z,30.70
2019-03-28T08:50:00.453Z,32.53
2019-03-28T08:52:28.561Z,30.35
2019-03-28T08:54:56.540Z,29.40
2019-03-28T08:57:24.511Z,28.70
2019-03-28T08:59:52.495Z,31.97
2019-03-28T09:02:20.482Z,29.48
2019-03-28T09:04:48.467Z,26.75
2019-03-28T09:07:17.568Z,30.50
2019-03-28T09:09:45.679Z,26.77
2019-03-28T09:12:13.666Z,25.32
2019-03-28T09:14:41.624Z,24.18
2019-03-28T09:17:09.656Z,23.95
2019-03-28T09:19:39.161Z,25.43
2019-03-28T09:22:07.438Z,26.60
2019-03-28T09:24:35.430Z,21.42
2019-03-28T09:27:03.371Z,26.27
2019-03-28T09:29:31.355Z,21.75
2019-03-28T09:31:59.324Z,24.40
2019-03-28T09:34:27.316Z,21.80
2019-03-28T09:36:55.268Z,22.35
2019-03-28T09:39:24.919Z,19.70
2019-03-28T09:41:52.955Z,19.75
2019-03-28T09:44:20.921Z,17.55
2019-03-28T09:46:48.896Z,17.98
2019-03-28T09:49:16.868Z,13.43
2019-03-28T09:51:44.833Z,17.75
2019-03-28T09:54:12.812Z,15.32
2019-03-28T09:56:40.773Z,15.78
2019-03-28T09:59:09.022Z,13.10
2019-03-28T10:01:36.983Z,14.45
2019-03-28T10:04:06.491Z,14.70
2019-03-28T10:06:34.806Z,13.13
2019-03-28T10:09:03.932Z,10.95
2019-03-28T10:11:31.907Z,12.70
2019-03-28T10:13:59.872Z,13.18
2019-03-28T10:16:27.946Z,17.23
2019-03-28T10:18:55.903Z,11.85
2019-03-28T10:21:23.949Z,12.78
2019-03-28T10:23:51.940Z,14.00
2019-03-28T10:26:19.994Z,13.68
2019-03-28T10:28:47.976Z,14.13
2019-03-28T10:31:17.014Z,18.67
2019-03-28T10:33:45.316Z,17.70
2019-03-28T10:36:13.255Z,14.40
2019-03-28T10:38:41.216Z,16.20
2019-03-28T10:41:09.198Z,14.75
2019-03-28T10:43:37.168Z,10.80
2019-03-28T10:46:06.154Z,10.58
2019-03-28T10:48:34.126Z,12.13
2019-03-28T10:51:02.122Z,9.48
2019-03-28T10:53:30.389Z,11.80
2019-03-28T10:55:58.498Z,8.65
2019-03-28T10:58:26.577Z,8.25
2019-03-28T11:00:54.888Z,19.20
2019-03-28T11:03:23.528Z,3.50
2019-03-28T11:05:51.527Z,6.08
2019-03-28T11:08:19.511Z,6.15
2019-03-28T11:10:47.484Z,8.15
2019-03-28T11:13:15.497Z,9.05
2019-03-28T11:15:43.465Z,6.75
2019-03-28T11:18:11.419Z,6.50
2019-03-28T11:20:40.122Z,11.90
2019-03-28T11:23:08.335Z,10.68
2019-03-28T11:25:36.342Z,7.15
2019-03-28T11:28:04.295Z,7.17
2019-03-28T11:30:32.550Z,6.17
2019-03-28T11:33:00.742Z,7.35
2019-03-28T11:35:28.763Z,7.72
2019-03-28T11:37:56.999Z,6.95
2019-03-28T11:40:24.916Z,7.53
2019-03-28T11:42:53.277Z,6.28
2019-03-28T11:45:21.961Z,10.75
2019-03-28T11:47:49.933Z,9.30
2019-03-28T11:50:17.917Z,6.67
2019-03-28T11:52:45.913Z,5.70
2019-03-28T11:55:13.865Z,5.05
2019-03-28T11:57:41.875Z,5.90
2019-03-28T12:00:11.508Z,5.15
2019-03-28T12:02:39.475Z,9.05
2019-03-28T12:05:07.453Z,7.30
2019-03-28T12:07:35.424Z,8.93
2019-03-28T12:10:05.000Z,11.65
2019-03-28T12:12:32.984Z,9.18
2019-03-28T12:15:00.958Z,8.53
2019-03-28T12:17:28.936Z,9.35
2019-03-28T12:19:56.934Z,10.80
2019-03-28T12:22:24.895Z,8.30
2019-03-28T12:24:52.869Z,8.55
2019-03-28T12:27:20.843Z,9.15
2019-03-28T12:29:50.439Z,8.78
2019-03-28T12:32:18.418Z,7.90
2019-03-28T12:34:46.379Z,9.48
2019-03-28T12:37:14.387Z,8.45
2019-03-28T12:39:42.363Z,11.18
2019-03-28T12:42:10.348Z,8.73
2019-03-28T12:44:38.326Z,8.10
2019-03-28T12:47:06.300Z,9.93
2019-03-28T12:49:34.262Z,10.60
2019-03-28T12:52:02.238Z,7.28
2019-03-28T12:54:30.208Z,12.05
2019-03-28T12:56:58.370Z,9.00
2019-03-28T12:59:26.442Z,7.22
2019-03-28T13:01:55.235Z,8.58
2019-03-28T13:04:23.457Z,8.90
2019-03-28T13:06:51.420Z,10.75
2019-03-28T13:09:19.422Z,10.20
2019-03-28T13:11:47.397Z,14.60
2019-03-28T13:14:15.340Z,8.35
2019-03-28T13:16:44.972Z,7.83
2019-03-28T13:19:12.968Z,9.95
2019-03-28T13:21:40.952Z,11.25
2019-03-28T13:24:08.907Z,9.70
2019-03-28T13:26:36.873Z,9.65
2019-03-28T13:29:04.949Z,9.15
2019-03-28T13:31:33.010Z,7.37
2019-03-28T13:34:01.468Z,11.68
2019-03-28T13:36:29.628Z,11.85
2019-03-28T13:38:57.607Z,12.60
2019-03-28T13:41:25.591Z,13.20
2019-03-28T13:43:53.555Z,8.48
2019-03-28T13:46:21.515Z,7.22
2019-03-28T13:48:49.500Z,9.93
2019-03-28T13:51:17.464Z,10.45
2019-03-28T13:53:45.452Z,11.30
2019-03-28T13:56:14.055Z,9.53
2019-03-28T13:58:41.995Z,9.60
2019-03-28T14:01:09.977Z,9.48
2019-03-28T14:03:37.939Z,13.08
2019-03-28T14:06:05.969Z,12.18
2019-03-28T14:08:33.971Z,9.30
2019-03-28T14:11:01.945Z,10.88
2019-03-28T14:13:29.982Z,10.25
2019-03-28T14:15:58.269Z,8.35
2019-03-28T14:18:26.440Z,10.58
2019-03-28T14:20:54.729Z,11.78
2019-03-28T14:23:23.399Z,14.70
2019-03-28T14:25:51.424Z,10.98
2019-03-28T14:28:19.421Z,12.93
2019-03-28T14:30:47.395Z,10.32
2019-03-28T14:33:16.022Z,9.10
2019-03-28T14:35:44.185Z,12.05
2019-03-28T14:38:12.131Z,9.80
2019-03-28T14:40:40.112Z,10.18
2019-03-28T14:43:10.713Z,11.20
2019-03-28T14:45:38.780Z,9.80
2019-03-28T14:48:07.104Z,10.80
2019-03-28T14:50:35.977Z,15.72
2019-03-28T14:53:04.348Z,8.23
2019-03-28T14:55:32.355Z,9.60
2019-03-28T14:58:21.957Z,7.87
2019-03-28T15:00:50.523Z,12.20
2019-03-28T15:03:27.259Z,11.30
2019-03-28T15:05:48.283Z,10.20
2019-03-28T15:08:16.323Z,10.03
2019-03-28T15:10:44.499Z,10.05
2019-03-28T15:13:12.479Z,10.85
2019-03-28T15:15:40.540Z,11.38
2019-03-28T15:18:08.547Z,9.33
2019-03-28T15:20:55.969Z,10.35
2019-03-28T15:23:24.024Z,9.50
2019-03-28T15:25:52.594Z,9.83
2019-03-28T15:28:20.576Z,12.93
2019-03-28T15:30:51.321Z,11.53
2019-03-28T15:33:19.299Z,9.88
2019-03-28T15:35:47.265Z,9.20
2019-03-28T15:38:15.219Z,12.00
2019-03-28T15:40:43.224Z,12.80
2019-03-28T15:43:11.189Z,11.45
2019-03-28T15:45:39.197Z,16.90
2019-03-28T15:48:08.128Z,12.35
2019-03-28T15:50:36.176Z,9.68
2019-03-28T15:53:05.543Z,11.10
2019-03-28T15:55:33.809Z,9.93
2019-03-28T15:58:01.828Z,12.03
2019-03-28T16:00:29.879Z,12.90
2019-03-28T16:02:57.844Z,10.88
2019-03-28T16:05:25.832Z,11.90
2019-03-28T16:07:53.797Z,17.73
2019-03-28T16:10:21.756Z,21.75
2019-03-28T16:12:49.748Z,10.90
2019-03-28T16:15:17.728Z,13.38
2019-03-28T16:17:45.698Z,14.38
2019-03-28T16:20:13.740Z,14.30
2019-03-28T16:22:41.715Z,15.78
2019-03-28T16:25:09.683Z,15.13
2019-03-28T16:27:37.674Z,17.95
2019-03-28T16:30:06.803Z,15.75
2019-03-28T16:32:34.767Z,18.75
2019-03-28T16:35:03.420Z,16.70
2019-03-28T16:37:31.392Z,15.40
2019-03-28T16:39:59.368Z,19.37
2019-03-28T16:42:27.331Z,16.30
2019-03-28T16:44:55.570Z,18.95
2019-03-28T16:47:23.554Z,17.07
2019-03-28T16:49:51.523Z,19.40
2019-03-28T16:52:19.484Z,15.18
2019-03-28T16:54:47.469Z,17.02
2019-03-28T16:57:15.428Z,17.40
2019-03-28T16:59:43.467Z,19.48
2019-03-28T17:02:11.427Z,13.78
2019-03-28T17:04:39.413Z,21.20
2019-03-28T17:07:07.444Z,15.20
2019-03-28T17:09:37.566Z,16.25
2019-03-28T17:12:05.122Z,16.30
2019-03-28T17:14:33.081Z,17.77
2019-03-28T17:17:01.035Z,13.28
2019-03-28T17:19:29.084Z,14.03
2019-03-28T17:21:57.067Z,14.93
2019-03-28T17:24:25.038Z,14.28
2019-03-28T17:26:53.038Z,18.90
2019-03-28T17:29:20.994Z,13.28
2019-03-28T17:31:48.963Z,15.38
2019-03-28T17:34:16.931Z,13.15
2019-03-28T17:36:44.908Z,13.03
2019-03-28T17:39:12.996Z,15.88
2019-03-28T17:41:40.947Z,11.05
2019-03-28T17:44:08.932Z,10.20
2019-03-28T17:46:36.915Z,12.35
2019-03-28T17:49:04.888Z,12.07
2019-03-28T17:51:32.847Z,10.60
2019-03-28T17:54:00.824Z,12.25
2019-03-28T17:56:28.900Z,7.92
2019-03-28T17:58:57.582Z,10.93
2019-03-28T18:01:25.766Z,11.25
2019-03-28T18:03:53.755Z,9.85
2019-03-28T18:06:21.744Z,10.20
2019-03-28T18:08:49.719Z,12.95
2019-03-28T18:11:17.680Z,8.30
2019-03-28T18:13:45.664Z,12.18
2019-03-28T18:16:13.631Z,9.13
2019-03-28T18:18:41.611Z,9.30
2019-03-28T18:21:09.591Z,11.43
2019-03-28T18:23:37.570Z,12.07
2019-03-28T18:26:05.544Z,11.53
2019-03-28T18:28:33.562Z,10.32
2019-03-28T18:31:01.538Z,9.58
2019-03-28T18:33:29.496Z,12.33
2019-03-28T18:35:57.489Z,6.95
2019-03-28T18:38:25.440Z,11.18
2019-03-28T18:40:53.419Z,13.43
2019-03-28T18:43:21.388Z,12.03
2019-03-28T18:45:49.557Z,11.35
2019-03-28T18:48:28.226Z,7.85
2019-03-28T18:50:47.171Z,13.13
2019-03-28T18:53:15.145Z,13.03
2019-03-28T18:55:43.124Z,12.68
2019-03-28T18:58:11.104Z,16.85
2019-03-28T19:00:39.093Z,16.65
2019-03-28T19:03:07.067Z,18.30
2019-03-28T19:15:21.087Z,3.80
2019-03-28T19:17:49.104Z,2.80
2019-03-28T19:22:29.803Z,1.85
2019-03-28T19:24:58.047Z,4.45
2019-03-28T19:37:24.561Z,8.83
2019-03-28T19:39:52.937Z,14.05
2019-03-28T19:42:22.569Z,7.62
2019-03-28T19:44:51.027Z,9.00
2019-03-28T19:47:19.361Z,14.03
2019-03-28T19:49:47.561Z,10.25
2019-03-28T19:52:15.862Z,12.18
2019-03-28T19:54:44.067Z,11.80
2019-03-28T19:57:12.992Z,13.35
2019-03-28T19:59:41.473Z,15.90
2019-03-28T20:02:09.704Z,12.68
2019-03-28T20:04:37.922Z,17.70
2019-03-28T20:07:06.140Z,17.80
2019-03-28T20:09:34.345Z,12.25
2019-03-28T20:12:03.504Z,14.13
2019-03-28T20:14:32.039Z,12.80
2019-03-28T20:17:00.259Z,13.20
2019-03-28T20:19:29.096Z,12.28
2019-03-28T20:21:59.564Z,9.88
2019-03-28T20:24:27.487Z,12.98
2019-03-28T20:26:56.247Z,11.00
2019-03-28T20:29:24.612Z,13.50
2019-03-28T20:31:52.817Z,13.98
2019-03-28T20:34:21.041Z,10.32
2019-03-28T20:36:52.576Z,12.25
2019-03-28T20:39:19.308Z,13.53
2019-03-28T20:41:47.589Z,13.72
2019-03-28T20:44:15.845Z,11.85
2019-03-28T20:46:44.081Z,15.68
2019-03-28T20:49:12.310Z,19.48
2019-03-28T20:51:40.501Z,17.45
2019-03-28T20:54:08.710Z,19.05
2019-03-28T20:56:36.911Z,16.17
2019-03-28T20:59:05.115Z,15.20
2019-03-28T21:01:33.352Z,15.03
2019-03-28T21:04:01.545Z,11.35
2019-03-28T21:06:29.770Z,13.08
2019-03-28T21:08:58.001Z,14.10
2019-03-28T21:11:29.351Z,19.52
2019-03-28T21:13:56.466Z,14.23
2019-03-28T21:16:24.713Z,13.48
2019-03-28T21:18:53.089Z,13.35
2019-03-28T21:21:21.423Z,12.47
2019-03-28T21:23:49.645Z,16.15
2019-03-28T21:26:17.845Z,17.67
2019-03-28T21:28:47.564Z,11.33
2019-03-28T21:31:16.160Z,19.90
2019-03-28T21:33:44.409Z,15.75
2019-03-28T21:36:12.641Z,16.42
2019-03-28T21:38:40.857Z,14.10
2019-03-28T21:41:09.144Z,17.65
2019-03-28T21:43:37.384Z,16.62
2019-03-28T21:46:06.223Z,15.80
2019-03-28T21:48:35.329Z,16.77
2019-03-28T21:51:03.573Z,18.48
2019-03-28T21:53:33.041Z,14.00
2019-03-28T21:56:01.456Z,15.10
2019-03-28T21:58:30.635Z,16.67
2019-03-28T22:00:58.976Z,16.67
2019-03-28T22:03:27.184Z,21.02
2019-03-28T22:05:55.414Z,14.53
2019-03-28T22:08:23.612Z,16.70
2019-03-28T22:10:51.855Z,19.02
2019-03-28T22:13:20.069Z,19.62
2019-03-28T22:15:48.310Z,21.15
2019-03-28T22:18:16.588Z,19.82
2019-03-28T22:20:44.784Z,21.05
2019-03-28T22:23:13.854Z,21.12
2019-03-28T22:25:42.178Z,22.25
2019-03-28T22:28:10.418Z,22.90
2019-03-28T22:30:39.049Z,18.07
2019-03-28T22:33:07.491Z,18.12
2019-03-28T22:35:35.694Z,19.48
2019-03-28T22:38:03.978Z,19.15
2019-03-28T22:40:32.227Z,18.55
2019-03-28T22:43:00.468Z,21.93
2019-03-28T22:45:28.978Z,15.93
2019-03-28T22:48:10.143Z,15.32
2019-03-28T22:50:27.190Z,19.77
2019-03-28T22:52:55.444Z,18.87
2019-03-28T22:55:23.672Z,18.40
2019-03-28T22:57:54.001Z,18.10
2019-03-28T23:00:23.496Z,20.00
2019-03-28T23:02:51.713Z,20.23
2019-03-28T23:05:19.922Z,17.37
2019-03-28T23:07:48.171Z,20.05
2019-03-28T23:10:17.034Z,20.17
2019-03-28T23:12:46.357Z,16.10
2019-03-28T23:15:14.809Z,22.82
2019-03-28T23:17:42.972Z,22.02
2019-03-28T23:20:11.263Z,23.22
2019-03-28T23:22:39.488Z,23.47
2019-03-28T23:25:10.948Z,22.80
2019-03-28T23:27:39.429Z,21.95
2019-03-28T23:30:08.235Z,20.60
2019-03-28T23:32:36.448Z,22.62
2019-03-28T23:35:05.135Z,25.10
2019-03-28T23:37:33.348Z,21.80
2019-03-28T23:40:01.559Z,24.47
2019-03-28T23:42:29.790Z,21.90
2019-03-28T23:44:58.005Z,19.95
2019-03-28T23:47:26.292Z,19.10
2019-03-28T23:49:54.496Z,18.73
2019-03-28T23:52:22.700Z,19.67
2019-03-28T23:54:50.963Z,22.95
2019-03-28T23:57:19.156Z,20.85
2019-03-28T23:59:47.376Z,18.02
